Time;durP1;ratioP1;P1;durP2;ratioP2;P2;SDS_P1;SDS_P2;PMS_P1;PMS_P2;Temp;Humidity;BMP_temperature;BMP_pressure;BME280_temperature;BME280_humidity;BME280_pressure;Samples;Min_cycle;Max_cycle;Signal;HPM_P1;HPM_P2
2021/04/09 04:45:28;;;;;;;10.20;4.80;;;;;;;;;;6106077;22;883787;-76
2021/04/09 04:47:53;;;;;;;11.63;4.80;;;;;;;;;;6188279;23;20431;-77
2021/04/09 04:50:19;;;;;;;10.73;5.57;;;;;;;;;;6188255;23;20099;-77
2021/04/09 04:52:45;;;;;;;13.80;6.25;;;;;;;;;;6216390;23;20060;-77
2021/04/09 04:55:11;;;;;;;10.75;5.53;;;;;;;;;;6215361;23;20341;-77
2021/04/09 04:57:36;;;;;;;13.68;6.78;;;;;;;;;;6189258;23;20489;-77
2021/04/09 05:00:05;;;;;;;14.80;6.40;;;;;;;;;;6189874;23;20032;-77
2021/04/09 05:02:31;;;;;;;13.35;5.70;;;;;;;;;;6216641;23;20004;-78
2021/04/09 05:04:56;;;;;;;11.30;5.70;;;;;;;;;;6213470;23;20355;-77
2021/04/09 05:07:22;;;;;;;14.52;6.68;;;;;;;;;;6212674;23;20334;-76
2021/04/09 05:09:48;;;;;;;13.30;5.22;;;;;;;;;;6212538;23;20404;-76
2021/04/09 05:12:13;;;;;;;14.98;6.75;;;;;;;;;;6186268;23;20103;-77
2021/04/09 05:14:39;;;;;;;11.52;6.00;;;;;;;;;;6212514;23;20004;-76
2021/04/09 05:17:05;;;;;;;11.77;6.97;;;;;;;;;;6212714;23;20000;-76
2021/04/09 05:19:30;;;;;;;16.85;6.20;;;;;;;;;;6212644;23;20397;-77
2021/04/09 05:24:15;;;;;;;11.07;6.35;;;;;;;;;;5097451;28;20375;-76
2021/04/09 05:26:41;;;;;;;9.88;5.95;;;;;;;;;;5091112;28;20115;-75
2021/04/09 05:29:07;;;;;;;12.65;6.30;;;;;;;;;;5097894;28;20024;-76
2021/04/09 05:31:33;;;;;;;10.43;6.80;;;;;;;;;;5092960;28;20032;-77
2021/04/09 05:33:59;;;;;;;10.23;5.55;;;;;;;;;;5091845;28;20383;-76
2021/04/09 05:36:24;;;;;;;11.75;6.00;;;;;;;;;;5095287;28;20020;-77
2021/04/09 05:38:50;;;;;;;12.27;6.00;;;;;;;;;;5092561;28;20043;-77
2021/04/09 05:41:16;;;;;;;11.80;5.93;;;;;;;;;;5096187;28;20024;-75
2021/04/09 05:43:41;;;;;;;15.35;6.88;;;;;;;;;;5088388;28;20054;-76
2021/04/09 05:46:07;;;;;;;10.07;5.13;;;;;;;;;;5094313;28;20085;-76
2021/04/09 05:48:33;;;;;;;13.00;5.85;;;;;;;;;;5094046;28;20020;-77
2021/04/09 05:50:58;;;;;;;13.48;6.68;;;;;;;;;;5092671;28;19998;-76
2021/04/09 05:53:24;;;;;;;13.02;6.82;;;;;;;;;;5095599;28;20038;-76
2021/04/09 05:55:50;;;;;;;11.30;6.53;;;;;;;;;;5092575;28;20495;-77
2021/04/09 05:58:16;;;;;;;11.35;7.13;;;;;;;;;;5071263;28;20354;-77
2021/04/09 06:00:42;;;;;;;17.38;9.77;;;;;;;;;;5100976;28;20115;-77
2021/04/09 06:03:07;;;;;;;15.80;8.63;;;;;;;;;;5081609;28;20050;-76
2021/04/09 06:05:33;;;;;;;14.05;8.23;;;;;;;;;;5076133;28;19917;-77
2021/04/09 06:07:59;;;;;;;13.35;8.75;;;;;;;;;;5076640;28;20031;-77
2021/04/09 06:10:25;;;;;;;16.25;8.68;;;;;;;;;;5075831;28;20024;-77
2021/04/09 06:12:50;;;;;;;15.30;9.02;;;;;;;;;;5062818;28;20024;-77
2021/04/09 06:15:16;;;;;;;18.35;9.80;;;;;;;;;;5069661;28;20025;-77
2021/04/09 06:17:43;;;;;;;14.05;7.13;;;;;;;;;;5082415;28;20035;-77
2021/04/09 06:20:09;;;;;;;13.15;6.95;;;;;;;;;;5077644;28;20519;-76
2021/04/09 06:22:35;;;;;;;12.73;6.35;;;;;;;;;;5075766;28;20029;-77
2021/04/09 06:25:01;;;;;;;13.52;7.35;;;;;;;;;;5075900;28;20025;-77
2021/04/09 06:27:27;;;;;;;11.85;7.00;;;;;;;;;;5071871;28;20639;-77
2021/04/09 06:29:52;;;;;;;15.32;8.25;;;;;;;;;;5079939;28;20095;-77
2021/04/09 06:32:18;;;;;;;11.38;7.35;;;;;;;;;;5078610;28;20069;-76
2021/04/09 06:34:44;;;;;;;13.73;7.72;;;;;;;;;;5068269;28;20020;-76
2021/04/09 06:37:09;;;;;;;12.18;6.68;;;;;;;;;;5066049;28;20028;-77
2021/04/09 06:39:35;;;;;;;9.00;5.50;;;;;;;;;;5062961;28;20021;-76
2021/04/09 06:42:01;;;;;;;12.00;7.22;;;;;;;;;;5062782;28;20038;-77
2021/04/09 06:44:27;;;;;;;12.90;6.80;;;;;;;;;;5059901;28;20029;-76
2021/04/09 06:46:53;;;;;;;14.98;6.60;;;;;;;;;;5086539;28;20434;-76
2021/04/09 06:49:18;;;;;;;12.23;4.85;;;;;;;;;;5066317;28;20024;-77
2021/04/09 06:51:45;;;;;;;7.88;4.35;;;;;;;;;;5065739;28;20024;-77
2021/04/09 06:54:11;;;;;;;6.25;3.85;;;;;;;;;;5057978;28;20033;-77
2021/04/09 06:56:37;;;;;;;7.63;4.07;;;;;;;;;;5060159;28;20025;-77
2021/04/09 06:59:04;;;;;;;7.10;3.97;;;;;;;;;;5059994;28;20385;-77
2021/04/09 07:01:30;;;;;;;8.68;3.67;;;;;;;;;;5056693;28;20514;-77
2021/04/09 07:03:56;;;;;;;8.13;4.15;;;;;;;;;;5062012;28;20048;-77
2021/04/09 07:06:22;;;;;;;8.45;4.30;;;;;;;;;;5069190;28;20077;-77
2021/04/09 07:08:48;;;;;;;9.10;4.35;;;;;;;;;;5050831;28;20501;-77
2021/04/09 07:11:13;;;;;;;8.05;4.85;;;;;;;;;;5061546;28;20469;-76
2021/04/09 07:13:52;;;;;;;8.80;4.55;;;;;;;;;;5059593;28;20021;-77
2021/04/09 07:16:18;;;;;;;8.88;4.80;;;;;;;;;;5053889;28;20044;-77
2021/04/09 07:18:48;;;;;;;11.27;5.15;;;;;;;;;;5080425;28;20111;-77
2021/04/09 07:21:24;;;;;;;11.57;5.32;;;;;;;;;;5068288;28;20079;-76
2021/04/09 07:23:51;;;;;;;9.57;5.75;;;;;;;;;;5075223;28;20384;-77
2021/04/09 07:26:35;;;;;;;13.52;6.72;;;;;;;;;;5070483;28;20056;-78
2021/04/09 07:29:01;;;;;;;11.68;5.35;;;;;;;;;;5071217;28;20044;-77
2021/04/09 07:31:28;;;;;;;11.07;5.75;;;;;;;;;;5048842;28;20021;-78
2021/04/09 07:33:55;;;;;;;10.13;5.45;;;;;;;;;;5045252;28;20020;-77
2021/04/09 07:36:20;;;;;;;22.92;10.57;;;;;;;;;;5049596;28;20059;-76
2021/04/09 07:38:51;;;;;;;21.17;8.30;;;;;;;;;;5067152;28;20610;-76
2021/04/09 07:41:17;;;;;;;10.65;5.30;;;;;;;;;;5049289;28;20032;-76
2021/04/09 07:43:43;;;;;;;11.82;6.85;;;;;;;;;;5082224;28;20078;-76
2021/04/09 07:46:22;;;;;;;11.55;6.60;;;;;;;;;;5081395;28;20048;-76
2021/04/09 07:48:49;;;;;;;11.73;5.55;;;;;;;;;;5070569;28;20031;-77
2021/04/09 07:51:19;;;;;;;11.77;6.20;;;;;;;;;;5066122;28;20066;-76
2021/04/09 07:53:46;;;;;;;13.63;6.57;;;;;;;;;;5081314;28;20024;-76
2021/04/09 07:56:15;;;;;;;10.65;6.00;;;;;;;;;;5082232;28;20078;-77
2021/04/09 07:58:42;;;;;;;9.65;6.10;;;;;;;;;;5060283;28;20013;-78
2021/04/09 08:01:18;;;;;;;10.70;6.53;;;;;;;;;;5050966;28;20368;-78
2021/04/09 08:03:44;;;;;;;14.48;5.50;;;;;;;;;;5067896;28;20016;-76
2021/04/09 08:06:20;;;;;;;11.88;5.43;;;;;;;;;;5065388;28;20039;-77
2021/04/09 08:08:46;;;;;;;10.02;4.85;;;;;;;;;;5079058;28;20057;-77
2021/04/09 08:11:21;;;;;;;10.40;5.18;;;;;;;;;;5078385;28;20081;-77
2021/04/09 08:13:56;;;;;;;10.35;4.97;;;;;;;;;;5077786;28;20031;-77
2021/04/09 08:16:29;;;;;;;11.00;4.82;;;;;;;;;;5072496;28;20036;-77
2021/04/09 08:18:58;;;;;;;8.02;4.60;;;;;;;;;;5074152;28;20432;-77
2021/04/09 08:21:25;;;;;;;10.13;5.28;;;;;;;;;;5074945;28;20365;-77
2021/04/09 08:23:51;;;;;;;8.98;5.13;;;;;;;;;;5086722;28;20051;-77
2021/04/09 08:28:35;;;;;;;10.60;4.53;;;;;;;;;;5105376;27;20384;-77
2021/04/09 08:31:01;;;;;;;9.02;5.45;;;;;;;;;;5107366;28;20023;-76
2021/04/09 08:33:28;;;;;;;9.95;4.40;;;;;;;;;;5104698;28;20070;-76
2021/04/09 08:35:54;;;;;;;9.55;4.95;;;;;;;;;;5096984;28;20034;-76
2021/04/09 08:38:20;;;;;;;9.18;5.00;;;;;;;;;;5091859;28;20123;-76
2021/04/09 08:40:45;;;;;;;8.32;4.18;;;;;;;;;;5099499;28;20053;-77
2021/04/09 08:43:11;;;;;;;9.93;4.25;;;;;;;;;;5093207;28;20028;-76
2021/04/09 08:45:37;;;;;;;6.60;3.95;;;;;;;;;;5099185;28;20027;-76
2021/04/09 08:48:02;;;;;;;8.15;4.25;;;;;;;;;;5099268;28;20016;-77
2021/04/09 08:50:28;;;;;;;10.13;4.72;;;;;;;;;;5091693;28;20043;-77
2021/04/09 08:52:54;;;;;;;9.30;4.18;;;;;;;;;;5094368;28;20491;-77
2021/04/09 08:55:35;;;;;;;7.22;3.45;;;;;;;;;;5101515;28;20023;-77
2021/04/09 08:58:13;;;;;;;8.48;3.42;;;;;;;;;;5092614;28;20634;-77
2021/04/09 09:00:38;;;;;;;9.15;3.08;;;;;;;;;;5096963;28;20060;-78
2021/04/09 09:03:20;;;;;;;8.90;4.00;;;;;;;;;;5091346;28;20043;-77
2021/04/09 09:05:56;;;;;;;10.32;3.22;;;;;;;;;;5100296;28;20486;-77
2021/04/09 09:08:22;;;;;;;8.35;3.08;;;;;;;;;;5100383;28;20019;-77
2021/04/09 09:10:48;;;;;;;7.38;2.58;;;;;;;;;;5100612;28;20022;-78
2021/04/09 09:13:20;;;;;;;4.82;2.63;;;;;;;;;;5095314;28;20103;-77
2021/04/09 09:15:52;;;;;;;18.02;7.95;;;;;;;;;;5095577;28;20407;-78
2021/04/09 09:18:18;;;;;;;;;;;;;;;;;;5093729;28;20016;-78
2021/04/09 09:20:59;;;;;;;9.93;3.53;;;;;;;;;;5093524;28;19935;-78
2021/04/09 09:23:25;;;;;;;10.93;4.82;;;;;;;;;;5093506;28;20051;-77
2021/04/09 09:25:51;;;;;;;15.25;4.25;;;;;;;;;;5103660;28;20024;-78
2021/04/09 09:28:17;;;;;;;7.88;2.70;;;;;;;;;;5098126;28;20516;-78
2021/04/09 09:30:54;;;;;;;8.23;2.70;;;;;;;;;;5096051;28;20115;-78
2021/04/09 09:33:27;;;;;;;9.48;4.50;;;;;;;;;;5096333;28;20016;-77
2021/04/09 09:35:55;;;;;;;15.25;6.20;;;;;;;;;;5094261;28;20099;-77
2021/04/09 09:38:40;;;;;;;8.13;3.75;;;;;;;;;;5090645;28;20024;-77
2021/04/09 09:41:06;;;;;;;9.30;3.00;;;;;;;;;;5079394;28;20067;-77
2021/04/09 09:43:32;;;;;;;8.48;3.45;;;;;;;;;;5081959;28;20463;-76
2021/04/09 09:45:57;;;;;;;8.75;3.15;;;;;;;;;;5087008;28;20028;-78
2021/04/09 09:48:23;;;;;;;10.25;3.42;;;;;;;;;;5076524;28;20441;-77
2021/04/09 09:50:48;;;;;;;8.70;3.63;;;;;;;;;;5084369;28;20029;-78
2021/04/09 09:53:14;;;;;;;7.43;3.95;;;;;;;;;;5078984;28;20058;-77
2021/04/09 09:55:45;;;;;;;9.65;3.40;;;;;;;;;;5085496;28;20020;-78
2021/04/09 09:58:11;;;;;;;5.80;2.95;;;;;;;;;;5085434;28;20116;-78
2021/04/09 10:00:37;;;;;;;6.47;3.50;;;;;;;;;;5091978;28;20016;-77
2021/04/09 10:03:13;;;;;;;7.57;2.90;;;;;;;;;;5081243;28;20024;-78
2021/04/09 10:05:39;;;;;;;8.25;3.03;;;;;;;;;;5084863;28;20020;-77
2021/04/09 10:10:23;;;;;;;8.20;3.17;;;;;;;;;;5110573;27;20439;-78
2021/04/09 10:15:07;;;;;;;5.20;2.80;;;;;;;;;;5068785;28;20357;-78
2021/04/09 10:17:32;;;;;;;9.50;3.30;;;;;;;;;;5051452;28;20357;-78
2021/04/09 10:19:58;;;;;;;7.60;3.20;;;;;;;;;;5051457;28;20017;-78
2021/04/09 10:22:24;;;;;;;6.90;3.47;;;;;;;;;;5051267;28;20056;-78
2021/04/09 10:24:50;;;;;;;6.93;2.85;;;;;;;;;;5051043;28;20411;-77
2021/04/09 10:27:15;;;;;;;6.18;2.80;;;;;;;;;;5051215;28;20018;-77
2021/04/09 10:29:41;;;;;;;6.03;2.88;;;;;;;;;;5046354;28;20025;-78
2021/04/09 10:32:14;;;;;;;7.82;2.95;;;;;;;;;;5043129;28;20108;-78
2021/04/09 10:34:40;;;;;;;7.43;2.97;;;;;;;;;;5045476;28;20029;-77
2021/04/09 10:37:06;;;;;;;6.65;2.50;;;;;;;;;;5041524;28;20051;-77
2021/04/09 10:39:32;;;;;;;7.82;2.72;;;;;;;;;;5035198;28;20499;-77
2021/04/09 10:42:01;;;;;;;8.65;2.42;;;;;;;;;;5041174;28;20037;-77
2021/04/09 10:44:29;;;;;;;7.07;3.00;;;;;;;;;;5047715;28;20067;-78
2021/04/09 10:47:21;;;;;;;6.03;2.42;;;;;;;;;;5049149;28;20044;-78
2021/04/09 10:49:46;;;;;;;6.25;3.10;;;;;;;;;;5047803;28;20519;-77
2021/04/09 10:52:13;;;;;;;8.30;3.08;;;;;;;;;;5038081;28;20034;-78
2021/04/09 10:54:40;;;;;;;8.43;2.97;;;;;;;;;;5036843;28;20056;-78
2021/04/09 10:57:07;;;;;;;7.55;2.92;;;;;;;;;;5039318;28;20029;-78
2021/04/09 10:59:37;;;;;;;8.57;3.25;;;;;;;;;;5046121;28;20022;-78
2021/04/09 11:02:03;;;;;;;6.88;2.30;;;;;;;;;;5048672;28;20551;-78
2021/04/09 11:04:30;;;;;;;7.28;2.70;;;;;;;;;;5049904;28;20025;-77
2021/04/09 11:07:06;;;;;;;8.85;3.00;;;;;;;;;;5045226;28;20029;-78
2021/04/09 11:09:47;;;;;;;9.45;3.83;;;;;;;;;;5057671;22;20099;-87
2021/04/09 11:12:19;;;;;;;6.07;2.38;;;;;;;;;;5046930;28;20076;-88
2021/04/09 11:14:45;;;;;;;7.38;2.70;;;;;;;;;;5045969;28;20413;-87
2021/04/09 11:17:21;;;;;;;5.40;2.30;;;;;;;;;;5046142;28;20025;-88
2021/04/09 11:19:47;;;;;;;8.45;2.45;;;;;;;;;;5064157;28;20059;-88
2021/04/09 11:22:16;;;;;;;5.35;2.75;;;;;;;;;;5066897;28;20082;-88
2021/04/09 11:24:41;;;;;;;4.65;2.17;;;;;;;;;;5052406;28;20040;-87
2021/04/09 11:27:17;;;;;;;6.47;2.63;;;;;;;;;;5040768;28;20385;-88
2021/04/09 11:29:43;;;;;;;8.13;2.65;;;;;;;;;;5049690;28;20064;-88
2021/04/09 11:32:09;;;;;;;5.47;2.78;;;;;;;;;;5053426;28;20056;-90
2021/04/09 11:34:35;;;;;;;14.25;2.97;;;;;;;;;;5053369;28;20116;-89
2021/04/09 11:37:01;;;;;;;5.78;2.42;;;;;;;;;;5052415;28;20029;-89
2021/04/09 11:39:27;;;;;;;5.65;2.40;;;;;;;;;;5053573;28;20021;-90
2021/04/09 11:42:00;;;;;;;6.10;2.72;;;;;;;;;;5052561;28;20481;-90
2021/04/09 11:44:26;;;;;;;5.88;2.60;;;;;;;;;;5052533;28;20083;-90
2021/04/09 11:46:52;;;;;;;5.70;2.70;;;;;;;;;;5048521;28;20022;-84
2021/04/09 11:49:17;;;;;;;8.25;2.70;;;;;;;;;;5056388;28;20079;-85
2021/04/09 11:51:43;;;;;;;5.80;2.40;;;;;;;;;;5054005;28;20396;-85
2021/04/09 11:54:23;;;;;;;6.82;2.78;;;;;;;;;;5054879;28;20108;-85
2021/04/09 11:59:14;;;;;;;8.90;2.42;;;;;;;;;;5125712;27;20367;-82
2021/04/09 12:01:41;;;;;;;7.28;2.28;;;;;;;;;;5122588;28;20067;-82
2021/04/09 12:04:07;;;;;;;5.85;2.75;;;;;;;;;;5114312;28;20026;-84
2021/04/09 12:06:36;;;;;;;6.25;2.65;;;;;;;;;;5127940;28;20015;-89
2021/04/09 12:09:03;;;;;;;6.65;2.33;;;;;;;;;;5138184;27;20039;-88
2021/04/09 12:11:29;;;;;;;4.10;2.42;;;;;;;;;;5136365;28;20391;-89
2021/04/09 12:13:55;;;;;;;6.18;3.30;;;;;;;;;;5135903;28;20039;-89
2021/04/09 12:16:21;;;;;;;6.20;2.33;;;;;;;;;;5124942;28;20024;-88
2021/04/09 12:18:47;;;;;;;6.20;2.90;;;;;;;;;;5109301;28;20053;-88
2021/04/09 12:21:13;;;;;;;5.60;2.00;;;;;;;;;;5102004;28;20043;-88
2021/04/09 12:23:41;;;;;;;5.32;2.38;;;;;;;;;;5106427;28;20036;-89
2021/04/09 12:26:07;;;;;;;4.15;1.92;;;;;;;;;;5103616;28;20038;-89
2021/04/09 12:28:37;;;;;;;4.18;2.05;;;;;;;;;;5105206;28;20451;-88
2021/04/09 12:31:03;;;;;;;4.50;1.80;;;;;;;;;;5110138;28;20559;-87
2021/04/09 12:33:29;;;;;;;6.20;1.92;;;;;;;;;;5103349;28;20081;-88
2021/04/09 12:35:55;;;;;;;6.95;2.83;;;;;;;;;;5107062;28;20054;-88
2021/04/09 12:38:27;;;;;;;4.88;2.25;;;;;;;;;;5109238;28;20109;-88
2021/04/09 12:40:59;;;;;;;5.20;1.88;;;;;;;;;;5121895;28;20023;-89
2021/04/09 12:43:25;;;;;;;7.20;2.40;;;;;;;;;;5108650;28;20012;-86
2021/04/09 12:45:51;;;;;;;4.20;2.08;;;;;;;;;;5126164;27;20021;-85
2021/04/09 12:48:17;;;;;;;4.80;1.90;;;;;;;;;;5128069;27;20043;-86
2021/04/09 12:50:42;;;;;;;3.70;1.80;;;;;;;;;;5124106;27;20026;-86
2021/04/09 12:53:08;;;;;;;3.63;1.88;;;;;;;;;;5127209;27;20030;-85
2021/04/09 12:55:33;;;;;;;5.28;2.00;;;;;;;;;;5115253;27;20128;-89
2021/04/09 12:57:59;;;;;;;5.28;1.80;;;;;;;;;;5104707;28;20036;-88
2021/04/09 13:00:25;;;;;;;6.40;1.88;;;;;;;;;;5097577;28;20123;-88
2021/04/09 13:02:50;;;;;;;3.55;1.60;;;;;;;;;;5114347;27;20028;-87
2021/04/09 13:05:16;;;;;;;6.85;2.28;;;;;;;;;;5098602;28;20028;-88
2021/04/09 13:07:42;;;;;;;7.65;3.88;;;;;;;;;;5096212;28;20024;-88
2021/04/09 13:10:08;;;;;;;7.95;3.35;;;;;;;;;;5094020;28;20519;-92
2021/04/09 13:12:37;;;;;;;4.57;2.10;;;;;;;;;;5082766;28;20135;-92
2021/04/09 13:15:03;;;;;;;8.40;2.95;;;;;;;;;;5096609;28;20034;-91
2021/04/09 13:17:29;;;;;;;4.93;1.77;;;;;;;;;;5087905;28;20028;-93
2021/04/09 13:19:54;;;;;;;4.95;2.58;;;;;;;;;;5089517;28;20020;-91
2021/04/09 13:22:21;;;;;;;4.78;2.30;;;;;;;;;;5087510;28;20116;-92
2021/04/09 13:24:49;;;;;;;5.13;2.47;;;;;;;;;;5081108;28;20027;-91
2021/04/09 13:27:15;;;;;;;10.25;2.67;;;;;;;;;;5081477;28;20047;-90
2021/04/09 13:29:42;;;;;;;5.30;2.10;;;;;;;;;;5083925;28;20459;-91
2021/04/09 13:32:07;;;;;;;5.38;2.40;;;;;;;;;;5095968;28;20035;-92
2021/04/09 13:34:33;;;;;;;6.88;2.40;;;;;;;;;;5085841;28;20098;-90
2021/04/09 13:36:59;;;;;;;5.68;2.30;;;;;;;;;;5101548;28;20019;-92
2021/04/09 13:39:25;;;;;;;4.95;1.95;;;;;;;;;;5096496;28;20507;-93
2021/04/09 13:41:52;;;;;;;4.10;1.80;;;;;;;;;;5104450;28;20024;-92
2021/04/09 13:44:18;;;;;;;5.25;2.35;;;;;;;;;;5093484;28;20016;-92
2021/04/09 13:46:43;;;;;;;5.50;1.83;;;;;;;;;;5113169;28;19930;-93
2021/04/09 13:49:09;;;;;;;6.68;2.60;;;;;;;;;;5113985;28;20143;-92
2021/04/09 13:51:35;;;;;;;4.85;1.70;;;;;;;;;;5104390;28;20097;-92
2021/04/09 13:54:00;;;;;;;7.93;2.75;;;;;;;;;;5102292;28;20130;-92
2021/04/09 13:56:26;;;;;;;10.07;2.72;;;;;;;;;;5100552;28;20016;-92
2021/04/09 13:58:52;;;;;;;5.78;2.15;;;;;;;;;;5089121;28;20024;-92
2021/04/09 14:01:17;;;;;;;6.50;3.15;;;;;;;;;;5094753;28;20028;-92
2021/04/09 14:03:43;;;;;;;4.85;2.15;;;;;;;;;;5112885;28;20027;-91
2021/04/09 14:06:09;;;;;;;7.20;3.05;;;;;;;;;;5113879;28;20020;-91
2021/04/09 14:08:34;;;;;;;4.85;1.88;;;;;;;;;;5110688;28;20131;-91
2021/04/09 14:11:00;;;;;;;8.73;2.03;;;;;;;;;;5091835;28;20028;-90
2021/04/09 14:13:26;;;;;;;4.80;1.85;;;;;;;;;;5092196;28;20031;-91
2021/04/09 14:15:52;;;;;;;11.38;2.40;;;;;;;;;;5099371;28;20055;-91
2021/04/09 14:18:18;;;;;;;5.80;1.75;;;;;;;;;;5091472;28;20020;-91
2021/04/09 14:20:44;;;;;;;4.30;2.03;;;;;;;;;;5090704;28;20031;-90
2021/04/09 14:23:10;;;;;;;3.92;1.80;;;;;;;;;;5092945;28;20024;-91
2021/04/09 14:25:35;;;;;;;7.13;1.73;;;;;;;;;;5078031;28;20085;-91
2021/04/09 14:28:01;;;;;;;5.53;1.70;;;;;;;;;;5070965;28;20494;-91
2021/04/09 14:30:27;;;;;;;5.15;1.80;;;;;;;;;;5105373;28;20026;-91
2021/04/09 14:32:53;;;;;;;6.05;1.95;;;;;;;;;;5074406;28;20024;-91
2021/04/09 14:35:19;;;;;;;5.03;1.77;;;;;;;;;;5089247;28;20024;-92
2021/04/09 14:37:45;;;;;;;6.03;2.03;;;;;;;;;;5089572;28;20020;-89
2021/04/09 14:40:12;;;;;;;6.47;1.80;;;;;;;;;;5093326;28;20088;-91
2021/04/09 14:42:38;;;;;;;6.72;2.45;;;;;;;;;;5090549;28;20027;-91
2021/04/09 14:45:08;;;;;;;6.95;2.03;;;;;;;;;;5094185;28;20020;-91
2021/04/09 14:47:34;;;;;;;6.80;1.88;;;;;;;;;;5095815;28;20055;-91
2021/04/09 14:49:59;;;;;;;4.05;1.60;;;;;;;;;;5097274;28;20030;-90
2021/04/09 14:52:25;;;;;;;7.28;1.63;;;;;;;;;;5102628;28;20030;-91
2021/04/09 14:54:51;;;;;;;5.13;2.08;;;;;;;;;;5093932;28;20028;-92
2021/04/09 14:57:17;;;;;;;7.20;2.08;;;;;;;;;;5084871;28;20028;-92
2021/04/09 14:59:43;;;;;;;8.68;1.70;;;;;;;;;;5081055;28;20488;-91
2021/04/09 15:02:08;;;;;;;5.47;2.10;;;;;;;;;;5088806;28;20024;-92
2021/04/09 15:04:34;;;;;;;5.05;1.88;;;;;;;;;;5084337;28;20084;-91
2021/04/09 15:07:00;;;;;;;6.43;2.33;;;;;;;;;;5088390;28;20502;-92
2021/04/09 15:09:25;;;;;;;8.15;2.10;;;;;;;;;;5090883;28;20027;-91
2021/04/09 15:11:51;;;;;;;6.05;2.40;;;;;;;;;;5084255;28;20023;-91
2021/04/09 15:14:17;;;;;;;7.53;2.90;;;;;;;;;;5085150;28;20024;-92
2021/04/09 15:16:42;;;;;;;6.57;2.22;;;;;;;;;;5084496;28;20549;-90
2021/04/09 15:19:08;;;;;;;5.93;2.13;;;;;;;;;;5084259;28;20024;-91
2021/04/09 15:21:34;;;;;;;9.07;2.72;;;;;;;;;;5102058;28;20054;-92
2021/04/09 15:23:59;;;;;;;7.30;2.00;;;;;;;;;;5094620;28;20107;-91
2021/04/09 15:26:25;;;;;;;6.20;2.53;;;;;;;;;;5092697;28;20028;-92
2021/04/09 15:28:51;;;;;;;7.47;1.98;;;;;;;;;;5086533;28;20028;-91
2021/04/09 15:31:17;;;;;;;8.20;2.65;;;;;;;;;;5075917;28;20031;-91
2021/04/09 15:33:42;;;;;;;8.52;3.53;;;;;;;;;;5085645;28;20031;-91
2021/04/09 15:36:08;;;;;;;5.45;1.80;;;;;;;;;;5099116;28;20034;-91
2021/04/09 15:38:34;;;;;;;7.85;2.22;;;;;;;;;;5086898;28;20020;-91
2021/04/09 15:41:01;;;;;;;9.57;2.78;;;;;;;;;;5079398;28;20032;-92
2021/04/09 15:43:27;;;;;;;7.03;2.55;;;;;;;;;;5089144;28;20523;-90
2021/04/09 15:45:53;;;;;;;7.30;3.13;;;;;;;;;;5094794;28;20544;-90
2021/04/09 15:48:19;;;;;;;6.97;2.80;;;;;;;;;;5077943;28;20119;-92
2021/04/09 15:50:45;;;;;;;3.90;1.95;;;;;;;;;;5089741;28;20020;-91
2021/04/09 15:53:11;;;;;;;6.40;3.38;;;;;;;;;;5080400;28;20594;-91
2021/04/09 15:55:36;;;;;;;7.13;2.35;;;;;;;;;;5083957;28;20447;-91
2021/04/09 15:58:03;;;;;;;7.82;3.78;;;;;;;;;;5081307;28;20496;-90
2021/04/09 16:02:51;;;;;;;7.57;3.10;;;;;;;;;;5072419;28;20841;-88
2021/04/09 16:05:17;;;;;;;6.03;2.20;;;;;;;;;;5057278;28;20082;-89
2021/04/09 16:07:43;;;;;;;7.63;2.63;;;;;;;;;;5065030;28;20028;-84
2021/04/09 16:10:09;;;;;;;5.68;2.53;;;;;;;;;;5059824;28;20435;-83
2021/04/09 16:12:35;;;;;;;6.22;2.33;;;;;;;;;;5063222;28;20104;-84
2021/04/09 16:15:01;;;;;;;5.78;2.20;;;;;;;;;;5062185;28;20971;-84
2021/04/09 16:17:26;;;;;;;12.98;6.60;;;;;;;;;;5063541;28;20164;-84
2021/04/09 16:19:52;;;;;;;11.00;7.85;;;;;;;;;;5063486;28;20031;-83
2021/04/09 16:22:18;;;;;;;9.70;6.88;;;;;;;;;;5060425;28;20267;-83
2021/04/09 16:24:45;;;;;;;7.50;2.88;;;;;;;;;;5057858;28;20029;-84
2021/04/09 16:27:10;;;;;;;5.45;2.70;;;;;;;;;;5054547;28;20087;-83
2021/04/09 16:29:36;;;;;;;8.38;3.10;;;;;;;;;;5061484;28;20029;-84
2021/04/09 16:32:02;;;;;;;8.18;3.67;;;;;;;;;;5056080;28;20029;-84
2021/04/09 16:34:27;;;;;;;8.85;4.70;;;;;;;;;;5062825;28;20476;-84
2021/04/09 16:36:53;;;;;;;8.18;4.53;;;;;;;;;;5060212;28;20017;-84
2021/04/09 16:39:19;;;;;;;7.13;3.47;;;;;;;;;;5059138;28;20470;-86
2021/04/09 16:41:44;;;;;;;5.50;3.00;;;;;;;;;;5059445;28;20067;-84
2021/04/09 16:44:10;;;;;;;8.02;3.35;;;;;;;;;;5053544;28;20033;-84
2021/04/09 16:46:36;;;;;;;10.05;3.55;;;;;;;;;;5061804;28;20021;-84
2021/04/09 16:49:02;;;;;;;7.70;3.00;;;;;;;;;;5059555;28;20029;-84
2021/04/09 16:51:28;;;;;;;5.53;2.63;;;;;;;;;;5059645;28;20365;-84
2021/04/09 16:53:54;;;;;;;10.95;2.45;;;;;;;;;;5062626;28;20047;-84
2021/04/09 16:56:19;;;;;;;4.00;1.85;;;;;;;;;;5061973;28;20029;-83
2021/04/09 16:58:45;;;;;;;6.50;2.38;;;;;;;;;;5066123;28;20411;-82
2021/04/09 17:01:11;;;;;;;6.70;2.60;;;;;;;;;;5077081;28;20039;-83
2021/04/09 17:03:36;;;;;;;5.90;2.80;;;;;;;;;;5072330;28;20069;-83
2021/04/09 17:06:03;;;;;;;7.13;2.97;;;;;;;;;;5054776;28;20044;-83
2021/04/09 17:11:06;;;;;;;6.30;3.70;;;;;;;;;;5003386;28;20339;-77
2021/04/09 17:13:32;;;;;;;7.47;5.10;;;;;;;;;;4996737;28;20030;-78
2021/04/09 17:15:57;;;;;;;9.27;4.30;;;;;;;;;;4992776;28;20504;-79
2021/04/09 17:18:24;;;;;;;5.85;2.20;;;;;;;;;;4996784;28;20027;-79
2021/04/09 17:20:50;;;;;;;9.73;2.90;;;;;;;;;;4996637;28;20053;-78
2021/04/09 17:23:15;;;;;;;6.10;2.67;;;;;;;;;;4996377;28;20080;-79
2021/04/09 17:25:41;;;;;;;4.45;2.00;;;;;;;;;;4994716;28;20029;-80
2021/04/09 17:28:07;;;;;;;3.78;1.70;;;;;;;;;;4996149;28;20097;-79
2021/04/09 17:30:33;;;;;;;5.05;2.15;;;;;;;;;;4994701;28;20029;-79
2021/04/09 17:32:59;;;;;;;4.97;2.13;;;;;;;;;;4995023;28;20114;-79
2021/04/09 17:35:25;;;;;;;8.48;2.30;;;;;;;;;;4995318;28;20042;-79
2021/04/09 17:37:50;;;;;;;6.35;2.72;;;;;;;;;;4996236;28;20023;-79
2021/04/09 17:40:16;;;;;;;6.07;1.88;;;;;;;;;;4994885;28;20035;-79
2021/04/09 17:42:42;;;;;;;5.65;1.90;;;;;;;;;;4996469;28;20548;-79
2021/04/09 17:45:08;;;;;;;4.40;2.20;;;;;;;;;;4995547;28;20030;-79
2021/04/09 17:47:34;;;;;;;9.98;2.30;;;;;;;;;;4993863;28;20026;-79
2021/04/09 17:49:59;;;;;;;5.00;1.40;;;;;;;;;;4995163;28;20045;-82
2021/04/09 17:52:25;;;;;;;6.43;2.25;;;;;;;;;;4994043;28;20081;-78
2021/04/09 17:54:51;;;;;;;3.67;1.50;;;;;;;;;;4995811;28;20030;-78
2021/04/09 17:57:17;;;;;;;8.07;2.28;;;;;;;;;;4996407;28;20036;-79
2021/04/09 17:59:43;;;;;;;4.85;2.92;;;;;;;;;;5010757;28;20457;-79
2021/04/09 18:02:09;;;;;;;6.15;2.40;;;;;;;;;;4996238;28;20038;-79
2021/04/09 18:04:35;;;;;;;5.95;3.17;;;;;;;;;;4995585;28;20029;-78
2021/04/09 18:07:00;;;;;;;7.30;4.65;;;;;;;;;;4994001;28;20057;-79
2021/04/09 18:09:26;;;;;;;10.60;5.13;;;;;;;;;;4995072;28;20030;-81
2021/04/09 18:11:52;;;;;;;8.95;4.55;;;;;;;;;;4996715;28;20022;-80
2021/04/09 18:14:18;;;;;;;10.65;6.53;;;;;;;;;;4995223;28;20125;-79
2021/04/09 18:16:44;;;;;;;11.32;6.78;;;;;;;;;;4995585;28;20026;-80
2021/04/09 18:19:10;;;;;;;6.53;3.92;;;;;;;;;;4996822;28;20437;-80
2021/04/09 18:21:35;;;;;;;5.30;3.30;;;;;;;;;;4995731;28;20019;-80
2021/04/09 18:24:02;;;;;;;5.50;3.10;;;;;;;;;;4994985;28;20030;-80
2021/04/09 18:26:28;;;;;;;7.10;4.20;;;;;;;;;;4998814;28;20425;-79
2021/04/09 18:28:55;;;;;;;8.13;6.30;;;;;;;;;;4998663;28;20027;-79
2021/04/09 18:31:23;;;;;;;8.68;4.90;;;;;;;;;;4997574;28;20410;-81
2021/04/09 18:33:49;;;;;;;4.95;3.42;;;;;;;;;;4997431;28;20022;-80
2021/04/09 18:36:15;;;;;;;6.43;4.13;;;;;;;;;;4997873;28;20033;-80
2021/04/09 18:38:44;;;;;;;6.10;3.88;;;;;;;;;;4996810;28;20041;-79
2021/04/09 18:41:14;;;;;;;10.00;4.70;;;;;;;;;;4994873;28;20186;-80
2021/04/09 18:43:39;;;;;;;7.80;5.47;;;;;;;;;;4995708;28;20018;-80
2021/04/09 18:46:05;;;;;;;7.28;3.35;;;;;;;;;;4997251;28;20049;-80
2021/04/09 18:48:31;;;;;;;5.65;3.33;;;;;;;;;;4995825;28;20541;-79
2021/04/09 18:50:56;;;;;;;5.57;3.10;;;;;;;;;;4998360;28;20024;-80
2021/04/09 18:53:22;;;;;;;5.07;2.10;;;;;;;;;;4998198;28;20022;-80
2021/04/09 18:55:48;;;;;;;3.97;2.00;;;;;;;;;;4994225;28;20445;-80
2021/04/09 18:58:13;;;;;;;6.03;2.03;;;;;;;;;;4998395;28;20430;-79
2021/04/09 19:00:39;;;;;;;5.75;2.13;;;;;;;;;;4997861;28;20022;-79
2021/04/09 19:03:05;;;;;;;4.32;2.03;;;;;;;;;;4997603;28;20023;-80
2021/04/09 19:05:30;;;;;;;7.28;1.80;;;;;;;;;;4995909;28;20018;-80
2021/04/09 19:07:56;;;;;;;4.10;1.90;;;;;;;;;;4996922;28;20022;-80
2021/04/09 19:10:24;;;;;;;4.63;1.98;;;;;;;;;;4997235;28;20022;-78
2021/04/09 19:12:50;;;;;;;4.15;1.52;;;;;;;;;;4993369;28;20505;-79
2021/04/09 19:15:15;;;;;;;7.43;2.22;;;;;;;;;;4997507;28;20034;-79
2021/04/09 19:17:41;;;;;;;6.75;2.85;;;;;;;;;;4997520;28;20030;-78
2021/04/09 19:20:10;;;;;;;7.65;2.58;;;;;;;;;;4997471;28;20064;-80
2021/04/09 19:22:35;;;;;;;7.85;3.42;;;;;;;;;;4995001;28;20482;-78
2021/04/09 19:25:01;;;;;;;7.03;3.13;;;;;;;;;;4996063;28;20022;-78
2021/04/09 19:27:27;;;;;;;5.40;2.55;;;;;;;;;;4996449;28;20646;-79
2021/04/09 19:29:52;;;;;;;4.78;2.30;;;;;;;;;;4993302;28;20477;-78
2021/04/09 19:32:18;;;;;;;9.75;2.38;;;;;;;;;;4996941;28;20026;-79
2021/04/09 19:34:44;;;;;;;10.27;2.63;;;;;;;;;;4994262;28;20030;-79
2021/04/09 19:37:09;;;;;;;8.10;2.28;;;;;;;;;;4996157;28;20032;-79
2021/04/09 19:39:35;;;;;;;5.97;1.80;;;;;;;;;;4996539;28;20454;-79